Sarah D. — WDC5757 — position and weather

sailwx.info

Track history (hours):
 
Tides and Currents Weather Stations Pressure Air Temp Water Temp Dewpoint Dewpoint Depression Visibility Wind Speed Wind Dir Waves Ship Positions

Sarah D.

Owner: C & J MARINE SERVICES, INC., BERWICK, LA. More information available from US FCC via Universal Licensing System and Coast Guard Vessel Documentation Center.

Last reported at 2018-Feb-19 02:22 UTC. Time now 2018-Feb-19 02:36 UTC.
Position N 29°34' W 094°28'.

; draft 3 m.

Type: . MMSI: 367045970.

Date/timePositionNaut miles runAvg speedWind from/ knotsBaromVisibWave heightAir tempDewpointWater temp
2018-Feb-19 02:22N 29°34' W 094°28'0 0.0
2018-Feb-19 02:00N 29°34' W 094°28'0 0.0
2018-Feb-19 01:08N 29°34' W 094°28'0 0.0
2018-Feb-19 00:06N 29°34' W 094°28'0 0.0
2018-Feb-18 23:49N 29°34' W 094°28'1 1.9
2018-Feb-18 23:27N 29°33' W 094°28'2 3.8
2018-Feb-18 22:59N 29°32' W 094°29'5 4.1
2018-Feb-18 21:41N 29°29' W 094°35'1 1.0
2018-Feb-18 21:09N 29°29' W 094°35'0 0.1
2018-Feb-18 21:00N 29°29' W 094°35'0 0.0
2018-Feb-18 20:17N 29°29' W 094°35'0 0.0
2018-Feb-18 19:56N 29°29' W 094°35'1 2.1
2018-Feb-18 19:27N 29°29' W 094°36'2 3.6
2018-Feb-18 18:50N 29°28' W 094°39'1 3.0
2018-Feb-18 18:29N 29°28' W 094°40'2 3.3
2018-Feb-18 17:59N 29°27' W 094°42'2 2.4
2018-Feb-18 17:08N 29°25' W 094°43'0 0.0
2018-Feb-18 16:44N 29°25' W 094°43'0 0.0
2018-Feb-18 16:12N 29°25' W 094°43'0 0.0
2018-Feb-18 15:59N 29°25' W 094°43'0 0.0
2018-Feb-18 15:29N 29°25' W 094°43'0 0.0
2018-Feb-18 14:13N 29°25' W 094°43'8 1.7
2018-Feb-18 09:28N 29°29' W 094°52'3 6.6
2018-Feb-18 08:59N 29°32' W 094°54'3 6.4
2018-Feb-18 08:30N 29°34' W 094°56'3 6.3
2018-Feb-18 08:00N 29°37' W 094°57'3 6.2
2018-Feb-18 07:30N 29°40' W 094°59'3 6.1
2018-Feb-18 07:00N 29°42' W 095°01'4 5.7
2018-Feb-18 06:18N 29°45' W 095°04'1 0.5
2018-Feb-18 04:10N 29°46' W 095°05'1 2.6
2018-Feb-18 03:45N 29°46' W 095°06'0 0.0
2018-Feb-18 01:17N 29°46' W 095°06'0 0.0
2018-Feb-18 00:25N 29°46' W 095°06'0 0.5
2018-Feb-17 23:59N 29°46' W 095°06'2 0.6
2018-Feb-17 20:56N 29°47' W 095°04'1 2.7
2018-Feb-17 20:26N 29°46' W 095°05'2 5.4
2018-Feb-17 20:00N 29°44' W 095°03'3 5.2
2018-Feb-17 19:30N 29°42' W 095°01'2 4.9
2018-Feb-17 19:00N 29°41' W 094°59'3 6.0
2018-Feb-17 18:30N 29°38' W 094°58'3 6.7
2018-Feb-17 18:00N 29°35' W 094°56'3 6.9
2018-Feb-17 17:30N 29°32' W 094°54'11 1.3
2018-Feb-17 08:43N 29°25' W 094°43'0 0.0
2018-Feb-17 08:27N 29°25' W 094°43'0 0.0
2018-Feb-17 08:00N 29°25' W 094°43'0 0.0
2018-Feb-17 07:04N 29°25' W 094°43'0 0.0
2018-Feb-17 06:52N 29°25' W 094°43'0 0.0
2018-Feb-17 06:25N 29°25' W 094°43'0 0.0
2018-Feb-17 05:59N 29°25' W 094°43'0 0.0
2018-Feb-17 05:30N 29°25' W 094°43'0 0.0
2018-Feb-17 05:00N 29°25' W 094°43'0 0.0
2018-Feb-17 04:29N 29°25' W 094°43'0 0.0
2018-Feb-17 03:58N 29°25' W 094°43'0 0.0
2018-Feb-17 03:28N 29°25' W 094°43'0 0.0
2018-Feb-17 03:00N 29°25' W 094°43'0 0.0
2018-Feb-17 02:26N 29°25' W 094°43'0 0.0
2018-Feb-17 01:57N 29°25' W 094°43'0 0.0
2018-Feb-17 01:30N 29°25' W 094°43'0 0.0
2018-Feb-17 00:59N 29°25' W 094°43'0 0.0
2018-Feb-17 00:30N 29°25' W 094°43'0 0.1
2018-Feb-16 23:57N 29°25' W 094°43'3 4.9
2018-Feb-16 23:21N 29°27' W 094°41'2 4.7
2018-Feb-16 23:00N 29°28' W 094°39'12 2.8
2018-Feb-16 18:40N 29°34' W 094°27'0 2.4
2018-Feb-16 18:28N 29°34' W 094°26'2 3.3
2018-Feb-16 17:58N 29°35' W 094°25'1 3.2
2018-Feb-16 17:30N 29°36' W 094°23'3 5.7
2018-Feb-16 17:00N 29°37' W 094°20'3 6.1
2018-Feb-16 16:30N 29°38' W 094°17'3 6.0
2018-Feb-16 16:00N 29°40' W 094°14'2 4.6
2018-Feb-16 15:30N 29°41' W 094°12'3 5.7
2018-Feb-16 15:00N 29°42' W 094°09'2 4.4
2018-Feb-16 14:30N 29°43' W 094°07'3 5.6
2018-Feb-16 14:00N 29°45' W 094°04'3 5.6
2018-Feb-16 13:30N 29°47' W 094°02'3 6.1
2018-Feb-16 13:00N 29°49' W 093°59'3 6.5
2018-Feb-16 12:30N 29°51' W 093°57'4 8.5
2018-Feb-16 12:00N 29°54' W 093°54'4 8.0
2018-Feb-16 11:30N 29°58' W 093°51'1 1.2
2018-Feb-16 11:00N 29°58' W 093°51'0 0.0
2018-Feb-16 10:28N 29°58' W 093°51'0 0.0
2018-Feb-16 10:00N 29°58' W 093°51'0 0.0
2018-Feb-16 09:25N 29°58' W 093°51'0 0.0
2018-Feb-16 08:59N 29°58' W 093°51'0 0.0
2018-Feb-16 08:30N 29°58' W 093°51'0 0.0
2018-Feb-16 08:00N 29°58' W 093°51'0 0.0
2018-Feb-16 07:30N 29°58' W 093°51'0 0.0
2018-Feb-16 07:00N 29°58' W 093°51'0 0.0
2018-Feb-16 06:30N 29°58' W 093°51'0 0.0
2018-Feb-16 06:00N 29°58' W 093°51'0 0.0
2018-Feb-16 05:30N 29°58' W 093°51'0 0.0
2018-Feb-16 05:00N 29°58' W 093°51'0 0.0
2018-Feb-16 04:30N 29°58' W 093°51'0 0.0
2018-Feb-16 03:59N 29°58' W 093°51'0 0.0
2018-Feb-16 03:30N 29°58' W 093°51'0 0.0
2018-Feb-16 03:00N 29°58' W 093°51'0 0.0
2018-Feb-16 02:30N 29°58' W 093°51'0 0.0
2018-Feb-16 01:59N 29°58' W 093°51'0 0.0
2018-Feb-16 01:30N 29°58' W 093°51'0 0.0
2018-Feb-16 01:00N 29°58' W 093°51'0 0.1
2018-Feb-16 00:30N 29°58' W 093°51'0 0.1
2018-Feb-16 00:00N 29°58' W 093°51'0 0.4
2018-Feb-15 23:30N 29°58' W 093°51'3 6.8
2018-Feb-15 23:00N 29°60' W 093°47'3 6.1
2018-Feb-15 22:30N 30°02' W 093°44'2 4.8
2018-Feb-15 22:00N 30°03' W 093°42'3 5.3
2018-Feb-15 21:30N 30°04' W 093°39'3 5.7
2018-Feb-15 21:00N 30°04' W 093°36'2 4.6
2018-Feb-15 20:30N 30°04' W 093°33'0 1.0
2018-Feb-15 20:00N 30°04' W 093°33'2 4.5
2018-Feb-15 19:30N 30°04' W 093°30'2 4.5
2018-Feb-15 19:00N 30°04' W 093°28'2 4.5
2018-Feb-15 18:30N 30°04' W 093°25'2 4.5
2018-Feb-15 18:00N 30°04' W 093°22'2 3.2
2018-Feb-15 17:30N 30°04' W 093°21'2 4.1
2018-Feb-15 17:00N 30°06' W 093°19'2 4.0
2018-Feb-15 16:30N 30°05' W 093°17'1 2.0
2018-Feb-15 16:00N 30°04' W 093°16'0 0.3
2018-Feb-15 15:30N 30°04' W 093°16'0 0.1
2018-Feb-15 15:00N 30°04' W 093°16'0 0.0
2018-Feb-15 14:30N 30°04' W 093°16'0 0.0
2018-Feb-15 14:00N 30°04' W 093°16'0 0.0
2018-Feb-15 13:30N 30°04' W 093°16'0 0.0
2018-Feb-15 13:00N 30°04' W 093°16'0 0.0
2018-Feb-15 12:30N 30°04' W 093°16'0 0.0
2018-Feb-15 12:00N 30°04' W 093°16'0 0.0
2018-Feb-15 11:30N 30°04' W 093°16'0 0.0
2018-Feb-15 11:00N 30°04' W 093°16'0 0.0
2018-Feb-15 10:30N 30°04' W 093°16'0 0.0
2018-Feb-15 10:00N 30°04' W 093°16'0 0.0
2018-Feb-15 09:30N 30°04' W 093°16'0 0.0
2018-Feb-15 09:00N 30°04' W 093°16'0 0.0
2018-Feb-15 08:30N 30°04' W 093°16'0 0.0
2018-Feb-15 07:58N 30°04' W 093°16'0 0.0
2018-Feb-15 07:30N 30°04' W 093°16'0 0.0
2018-Feb-15 07:00N 30°04' W 093°16'0 0.0
2018-Feb-15 06:29N 30°04' W 093°16'0 0.0
2018-Feb-15 06:00N 30°04' W 093°16'0 0.0
2018-Feb-15 05:30N 30°04' W 093°16'0 0.0
2018-Feb-15 05:00N 30°04' W 093°16'0 0.0
2018-Feb-15 04:29N 30°04' W 093°16'0 0.0
2018-Feb-15 04:00N 30°04' W 093°16'0 0.0
2018-Feb-15 03:30N 30°04' W 093°16'0 0.0
2018-Feb-15 03:00N 30°04' W 093°16'0 0.0
2018-Feb-15 02:22N 30°04' W 093°16'0 0.3
2018-Feb-15 02:00N 30°04' W 093°16'0 0.1
2018-Feb-15 01:30N 30°04' W 093°16'0 0.6
2018-Feb-15 01:00N 30°04' W 093°16'2 3.2
2018-Feb-15 00:30N 30°02' W 093°16'2 4.7
2018-Feb-15 00:00N 30°01' W 093°14'1 2.7
2018-Feb-14 23:30N 29°60' W 093°13'2 3.6
2018-Feb-14 23:00N 29°58' W 093°12'2 4.4
2018-Feb-14 22:30N 29°57' W 093°10'2 4.5
2018-Feb-14 22:00N 29°56' W 093°07'7 4.6
2018-Feb-14 20:26N 29°56' W 092°59'2 4.2
2018-Feb-14 19:58N 29°56' W 092°57'31 2.8
2018-Feb-14 08:50N 29°51' W 092°22'1 4.4
2018-Feb-14 08:30N 29°51' W 092°20'2 3.2
2018-Feb-14 08:00N 29°50' W 092°18'2 4.3
2018-Feb-14 07:30N 29°49' W 092°17'2 4.6
2018-Feb-14 07:00N 29°48' W 092°14'2 4.9
2018-Feb-14 06:30N 29°47' W 092°12'2 3.5
2018-Feb-14 06:00N 29°47' W 092°10'2 4.6
2018-Feb-14 05:30N 29°47' W 092°07'2 4.3
2018-Feb-14 05:00N 29°48' W 092°05'2 4.5
2018-Feb-14 04:29N 29°49' W 092°02'  
2018-Feb-10 01:59N 29°50' W 091°60'2 4.7
2018-Feb-10 01:30N 29°49' W 092°02'2 4.6
2018-Feb-10 01:00N 29°48' W 092°05'2 4.6
2018-Feb-10 00:29N 29°47' W 092°07'2 4.3
2018-Feb-09 23:59N 29°47' W 092°10'2 4.2
2018-Feb-09 23:29N 29°47' W 092°12'0 0.8
2018-Feb-09 22:59N 29°47' W 092°12'0 0.3
2018-Feb-09 22:45N 29°47' W 092°13'  
Track history (hours):
 
Tides and Currents Weather Stations Pressure Air Temp Water Temp Dewpoint Dewpoint Depression Visibility Wind Speed Wind Dir Waves Ship Positions

Sarah D.

Owner: C & J MARINE SERVICES, INC., BERWICK, LA. More information available from US FCC via Universal Licensing System and Coast Guard Vessel Documentation Center.

Last reported at 2018-Feb-19 02:22 UTC. Time now 2018-Feb-19 02:36 UTC.
Position N 29°34' W 094°28'.

; draft 3 m.

Type: . MMSI: 367045970.

Date/timePositionNaut miles runAvg speedWind from/ knotsBaromVisibWave heightAir tempDewpointWater temp
2018-Feb-19 02:22N 29°34' W 094°28'0 0.0
2018-Feb-19 02:00N 29°34' W 094°28'0 0.0
2018-Feb-19 01:08N 29°34' W 094°28'0 0.0
2018-Feb-19 00:06N 29°34' W 094°28'0 0.0
2018-Feb-18 23:49N 29°34' W 094°28'1 1.9
2018-Feb-18 23:27N 29°33' W 094°28'2 3.8
2018-Feb-18 22:59N 29°32' W 094°29'5 4.1
2018-Feb-18 21:41N 29°29' W 094°35'1 1.0
2018-Feb-18 21:09N 29°29' W 094°35'0 0.1
2018-Feb-18 21:00N 29°29' W 094°35'0 0.0
2018-Feb-18 20:17N 29°29' W 094°35'0 0.0
2018-Feb-18 19:56N 29°29' W 094°35'1 2.1
2018-Feb-18 19:27N 29°29' W 094°36'2 3.6
2018-Feb-18 18:50N 29°28' W 094°39'1 3.0
2018-Feb-18 18:29N 29°28' W 094°40'2 3.3
2018-Feb-18 17:59N 29°27' W 094°42'2 2.4
2018-Feb-18 17:08N 29°25' W 094°43'0 0.0
2018-Feb-18 16:44N 29°25' W 094°43'0 0.0
2018-Feb-18 16:12N 29°25' W 094°43'0 0.0
2018-Feb-18 15:59N 29°25' W 094°43'0 0.0
2018-Feb-18 15:29N 29°25' W 094°43'0 0.0
2018-Feb-18 14:13N 29°25' W 094°43'8 1.7
2018-Feb-18 09:28N 29°29' W 094°52'3 6.6
2018-Feb-18 08:59N 29°32' W 094°54'3 6.4
2018-Feb-18 08:30N 29°34' W 094°56'3 6.3
2018-Feb-18 08:00N 29°37' W 094°57'3 6.2
2018-Feb-18 07:30N 29°40' W 094°59'3 6.1
2018-Feb-18 07:00N 29°42' W 095°01'4 5.7
2018-Feb-18 06:18N 29°45' W 095°04'1 0.5
2018-Feb-18 04:10N 29°46' W 095°05'1 2.6
2018-Feb-18 03:45N 29°46' W 095°06'0 0.0
2018-Feb-18 01:17N 29°46' W 095°06'0 0.0
2018-Feb-18 00:25N 29°46' W 095°06'0 0.5
2018-Feb-17 23:59N 29°46' W 095°06'2 0.6
2018-Feb-17 20:56N 29°47' W 095°04'1 2.7
2018-Feb-17 20:26N 29°46' W 095°05'2 5.4
2018-Feb-17 20:00N 29°44' W 095°03'3 5.2
2018-Feb-17 19:30N 29°42' W 095°01'2 4.9
2018-Feb-17 19:00N 29°41' W 094°59'3 6.0
2018-Feb-17 18:30N 29°38' W 094°58'3 6.7
2018-Feb-17 18:00N 29°35' W 094°56'3 6.9
2018-Feb-17 17:30N 29°32' W 094°54'11 1.3
2018-Feb-17 08:43N 29°25' W 094°43'0 0.0
2018-Feb-17 08:27N 29°25' W 094°43'0 0.0
2018-Feb-17 08:00N 29°25' W 094°43'0 0.0
2018-Feb-17 07:04N 29°25' W 094°43'0 0.0
2018-Feb-17 06:52N 29°25' W 094°43'0 0.0
2018-Feb-17 06:25N 29°25' W 094°43'0 0.0
2018-Feb-17 05:59N 29°25' W 094°43'0 0.0
2018-Feb-17 05:30N 29°25' W 094°43'0 0.0
2018-Feb-17 05:00N 29°25' W 094°43'0 0.0
2018-Feb-17 04:29N 29°25' W 094°43'0 0.0
2018-Feb-17 03:58N 29°25' W 094°43'0 0.0
2018-Feb-17 03:28N 29°25' W 094°43'0 0.0
2018-Feb-17 03:00N 29°25' W 094°43'0 0.0
2018-Feb-17 02:26N 29°25' W 094°43'0 0.0
2018-Feb-17 01:57N 29°25' W 094°43'0 0.0
2018-Feb-17 01:30N 29°25' W 094°43'0 0.0
2018-Feb-17 00:59N 29°25' W 094°43'0 0.0
2018-Feb-17 00:30N 29°25' W 094°43'0 0.1
2018-Feb-16 23:57N 29°25' W 094°43'3 4.9
2018-Feb-16 23:21N 29°27' W 094°41'2 4.7
2018-Feb-16 23:00N 29°28' W 094°39'12 2.8
2018-Feb-16 18:40N 29°34' W 094°27'0 2.4
2018-Feb-16 18:28N 29°34' W 094°26'2 3.3
2018-Feb-16 17:58N 29°35' W 094°25'1 3.2
2018-Feb-16 17:30N 29°36' W 094°23'3 5.7
2018-Feb-16 17:00N 29°37' W 094°20'3 6.1
2018-Feb-16 16:30N 29°38' W 094°17'3 6.0
2018-Feb-16 16:00N 29°40' W 094°14'2 4.6
2018-Feb-16 15:30N 29°41' W 094°12'3 5.7
2018-Feb-16 15:00N 29°42' W 094°09'2 4.4
2018-Feb-16 14:30N 29°43' W 094°07'3 5.6
2018-Feb-16 14:00N 29°45' W 094°04'3 5.6
2018-Feb-16 13:30N 29°47' W 094°02'3 6.1
2018-Feb-16 13:00N 29°49' W 093°59'3 6.5
2018-Feb-16 12:30N 29°51' W 093°57'4 8.5
2018-Feb-16 12:00N 29°54' W 093°54'4 8.0
2018-Feb-16 11:30N 29°58' W 093°51'1 1.2
2018-Feb-16 11:00N 29°58' W 093°51'0 0.0
2018-Feb-16 10:28N 29°58' W 093°51'0 0.0
2018-Feb-16 10:00N 29°58' W 093°51'0 0.0
2018-Feb-16 09:25N 29°58' W 093°51'0 0.0
2018-Feb-16 08:59N 29°58' W 093°51'0 0.0
2018-Feb-16 08:30N 29°58' W 093°51'0 0.0
2018-Feb-16 08:00N 29°58' W 093°51'0 0.0
2018-Feb-16 07:30N 29°58' W 093°51'0 0.0
2018-Feb-16 07:00N 29°58' W 093°51'0 0.0
2018-Feb-16 06:30N 29°58' W 093°51'0 0.0
2018-Feb-16 06:00N 29°58' W 093°51'0 0.0
2018-Feb-16 05:30N 29°58' W 093°51'0 0.0
2018-Feb-16 05:00N 29°58' W 093°51'0 0.0
2018-Feb-16 04:30N 29°58' W 093°51'0 0.0
2018-Feb-16 03:59N 29°58' W 093°51'0 0.0
2018-Feb-16 03:30N 29°58' W 093°51'0 0.0
2018-Feb-16 03:00N 29°58' W 093°51'0 0.0
2018-Feb-16 02:30N 29°58' W 093°51'0 0.0
2018-Feb-16 01:59N 29°58' W 093°51'0 0.0
2018-Feb-16 01:30N 29°58' W 093°51'0 0.0
2018-Feb-16 01:00N 29°58' W 093°51'0 0.1
2018-Feb-16 00:30N 29°58' W 093°51'0 0.1
2018-Feb-16 00:00N 29°58' W 093°51'0 0.4
2018-Feb-15 23:30N 29°58' W 093°51'3 6.8
2018-Feb-15 23:00N 29°60' W 093°47'3 6.1
2018-Feb-15 22:30N 30°02' W 093°44'2 4.8
2018-Feb-15 22:00N 30°03' W 093°42'3 5.3
2018-Feb-15 21:30N 30°04' W 093°39'3 5.7
2018-Feb-15 21:00N 30°04' W 093°36'2 4.6
2018-Feb-15 20:30N 30°04' W 093°33'0 1.0
2018-Feb-15 20:00N 30°04' W 093°33'2 4.5
2018-Feb-15 19:30N 30°04' W 093°30'2 4.5
2018-Feb-15 19:00N 30°04' W 093°28'2 4.5
2018-Feb-15 18:30N 30°04' W 093°25'2 4.5
2018-Feb-15 18:00N 30°04' W 093°22'2 3.2
2018-Feb-15 17:30N 30°04' W 093°21'2 4.1
2018-Feb-15 17:00N 30°06' W 093°19'2 4.0
2018-Feb-15 16:30N 30°05' W 093°17'1 2.0
2018-Feb-15 16:00N 30°04' W 093°16'0 0.3
2018-Feb-15 15:30N 30°04' W 093°16'0 0.1
2018-Feb-15 15:00N 30°04' W 093°16'0 0.0
2018-Feb-15 14:30N 30°04' W 093°16'0 0.0
2018-Feb-15 14:00N 30°04' W 093°16'0 0.0
2018-Feb-15 13:30N 30°04' W 093°16'0 0.0
2018-Feb-15 13:00N 30°04' W 093°16'0 0.0
2018-Feb-15 12:30N 30°04' W 093°16'0 0.0
2018-Feb-15 12:00N 30°04' W 093°16'0 0.0
2018-Feb-15 11:30N 30°04' W 093°16'0 0.0
2018-Feb-15 11:00N 30°04' W 093°16'0 0.0
2018-Feb-15 10:30N 30°04' W 093°16'0 0.0
2018-Feb-15 10:00N 30°04' W 093°16'0 0.0
2018-Feb-15 09:30N 30°04' W 093°16'0 0.0
2018-Feb-15 09:00N 30°04' W 093°16'0 0.0
2018-Feb-15 08:30N 30°04' W 093°16'0 0.0
2018-Feb-15 07:58N 30°04' W 093°16'0 0.0
2018-Feb-15 07:30N 30°04' W 093°16'0 0.0
2018-Feb-15 07:00N 30°04' W 093°16'0 0.0
2018-Feb-15 06:29N 30°04' W 093°16'0 0.0
2018-Feb-15 06:00N 30°04' W 093°16'0 0.0
2018-Feb-15 05:30N 30°04' W 093°16'0 0.0
2018-Feb-15 05:00N 30°04' W 093°16'0 0.0
2018-Feb-15 04:29N 30°04' W 093°16'0 0.0
2018-Feb-15 04:00N 30°04' W 093°16'0 0.0
2018-Feb-15 03:30N 30°04' W 093°16'0 0.0
2018-Feb-15 03:00N 30°04' W 093°16'0 0.0
2018-Feb-15 02:22N 30°04' W 093°16'0 0.3
2018-Feb-15 02:00N 30°04' W 093°16'0 0.1
2018-Feb-15 01:30N 30°04' W 093°16'0 0.6
2018-Feb-15 01:00N 30°04' W 093°16'2 3.2
2018-Feb-15 00:30N 30°02' W 093°16'2 4.7
2018-Feb-15 00:00N 30°01' W 093°14'1 2.7
2018-Feb-14 23:30N 29°60' W 093°13'2 3.6
2018-Feb-14 23:00N 29°58' W 093°12'2 4.4
2018-Feb-14 22:30N 29°57' W 093°10'2 4.5
2018-Feb-14 22:00N 29°56' W 093°07'7 4.6
2018-Feb-14 20:26N 29°56' W 092°59'2 4.2
2018-Feb-14 19:58N 29°56' W 092°57'31 2.8
2018-Feb-14 08:50N 29°51' W 092°22'1 4.4
2018-Feb-14 08:30N 29°51' W 092°20'2 3.2
2018-Feb-14 08:00N 29°50' W 092°18'2 4.3
2018-Feb-14 07:30N 29°49' W 092°17'2 4.6
2018-Feb-14 07:00N 29°48' W 092°14'2 4.9
2018-Feb-14 06:30N 29°47' W 092°12'2 3.5
2018-Feb-14 06:00N 29°47' W 092°10'2 4.6
2018-Feb-14 05:30N 29°47' W 092°07'2 4.3
2018-Feb-14 05:00N 29°48' W 092°05'2 4.5
2018-Feb-14 04:29N 29°49' W 092°02'  
2018-Feb-10 01:59N 29°50' W 091°60'2 4.7
2018-Feb-10 01:30N 29°49' W 092°02'2 4.6
2018-Feb-10 01:00N 29°48' W 092°05'2 4.6
2018-Feb-10 00:29N 29°47' W 092°07'2 4.3
2018-Feb-09 23:59N 29°47' W 092°10'2 4.2
2018-Feb-09 23:29N 29°47' W 092°12'0 0.8
2018-Feb-09 22:59N 29°47' W 092°12'0 0.3
2018-Feb-09 22:45N 29°47' W 092°13'  

Dump ship's entire track history